createdAt,value
2023-03-26T00:02:17.340Z,28.06
2023-03-26T00:06:17.370Z,28.10
2023-03-26T00:10:17.551Z,28.07
2023-03-26T00:14:17.613Z,28.07
2023-03-26T00:18:17.649Z,28.11
2023-03-26T00:22:17.681Z,28.11
2023-03-26T00:26:17.808Z,28.09
2023-03-26T00:30:17.973Z,28.12
2023-03-26T00:34:18.214Z,28.13
2023-03-26T00:38:18.261Z,28.14
2023-03-26T00:42:18.315Z,28.12
2023-03-26T00:46:18.452Z,28.11
2023-03-26T00:50:18.494Z,28.11
2023-03-26T00:54:18.613Z,28.08
2023-03-26T00:58:18.753Z,28.14
2023-03-26T01:02:18.943Z,28.14
2023-03-26T01:06:19.087Z,28.11
2023-03-26T01:10:19.199Z,28.12
2023-03-26T01:14:19.422Z,28.15
2023-03-26T01:18:19.506Z,28.11
2023-03-26T01:22:19.633Z,28.15
2023-03-26T01:26:19.818Z,28.14
2023-03-26T01:30:19.943Z,28.15
2023-03-26T01:34:20.124Z,28.15
2023-03-26T01:38:20.244Z,28.16
2023-03-26T01:42:20.358Z,28.12
2023-03-26T01:46:20.445Z,28.18
2023-03-26T01:50:20.581Z,28.20
2023-03-26T01:54:20.714Z,28.18
2023-03-26T01:58:20.855Z,28.19
2023-03-26T02:02:21.102Z,28.16
2023-03-26T02:06:21.122Z,28.18
2023-03-26T02:10:21.251Z,28.22
2023-03-26T02:14:21.370Z,28.16
2023-03-26T02:18:21.511Z,28.22
2023-03-26T02:22:21.665Z,28.25
2023-03-26T02:26:21.799Z,28.23
2023-03-26T02:30:21.880Z,28.23
2023-03-26T02:34:22.053Z,28.18
2023-03-26T02:38:22.176Z,28.17
2023-03-26T02:42:22.385Z,28.25
2023-03-26T02:46:22.546Z,28.29
2023-03-26T02:50:22.644Z,28.24
2023-03-26T02:54:22.840Z,28.22
2023-03-26T02:58:23.039Z,28.24
2023-03-26T03:02:23.067Z,28.25
2023-03-26T03:06:22.985Z,28.24
2023-03-26T03:10:22.958Z,28.25
2023-03-26T03:14:22.873Z,28.28
2023-03-26T03:18:22.864Z,28.29
2023-03-26T03:22:22.784Z,28.25
2023-03-26T03:26:22.778Z,28.29
2023-03-26T03:30:22.771Z,28.25
2023-03-26T03:34:22.718Z,28.25
2023-03-26T03:38:22.771Z,28.24
2023-03-26T03:42:22.639Z,28.28
2023-03-26T03:46:22.711Z,28.24
2023-03-26T03:50:22.606Z,28.28
2023-03-26T03:54:22.601Z,28.30
2023-03-26T03:58:22.569Z,28.26
2023-03-26T04:02:22.609Z,28.28
2023-03-26T04:06:22.476Z,28.32
2023-03-26T04:10:22.452Z,28.31
2023-03-26T04:14:22.405Z,28.32
2023-03-26T04:18:22.342Z,28.31
2023-03-26T04:22:22.348Z,28.32
2023-03-26T04:26:22.308Z,28.29
2023-03-26T04:30:22.276Z,28.28
2023-03-26T04:34:22.259Z,28.28
2023-03-26T04:38:22.377Z,28.32
2023-03-26T04:42:22.365Z,28.34
2023-03-26T04:46:22.363Z,28.29
2023-03-26T04:50:22.306Z,28.28
2023-03-26T04:54:22.286Z,28.29
2023-03-26T04:58:22.206Z,28.33
2023-03-26T05:02:22.756Z,28.28
2023-03-26T05:06:22.172Z,28.33
2023-03-26T05:10:22.088Z,28.33
2023-03-26T05:14:22.120Z,28.30
2023-03-26T05:18:22.058Z,28.29
2023-03-26T05:22:22.019Z,28.31
2023-03-26T05:26:22.143Z,28.30
2023-03-26T05:30:22.232Z,28.29
2023-03-26T05:34:22.478Z,28.29
2023-03-26T05:38:22.698Z,28.30
2023-03-26T05:42:22.863Z,28.30
2023-03-26T05:46:23.120Z,28.30
2023-03-26T05:50:24.214Z,28.30
2023-03-26T05:54:23.459Z,28.31
2023-03-26T05:58:23.649Z,28.25
2023-03-26T06:02:23.947Z,28.26
2023-03-26T06:06:24.002Z,28.26
2023-03-26T06:10:24.134Z,28.23
2023-03-26T06:14:24.368Z,28.19
2023-03-26T06:18:24.634Z,28.18
2023-03-26T06:22:24.779Z,28.12
2023-03-26T06:26:24.965Z,28.07
2023-03-26T06:30:25.131Z,28.11
2023-03-26T06:34:25.318Z,28.11
2023-03-26T06:38:25.470Z,28.06
2023-03-26T06:42:31.988Z,28.03
2023-03-26T06:46:26.642Z,27.99
2023-03-26T06:50:25.578Z,27.92
2023-03-26T06:54:25.530Z,27.88
2023-03-26T06:58:25.696Z,27.87
2023-03-26T07:02:25.916Z,27.85
2023-03-26T07:06:25.957Z,27.82
2023-03-26T07:10:26.097Z,27.83
2023-03-26T07:14:26.378Z,27.73
2023-03-26T07:18:26.340Z,27.40
2023-03-26T07:22:26.421Z,27.16
2023-03-26T07:26:26.469Z,26.91
2023-03-26T07:30:26.489Z,26.82
2023-03-26T07:34:26.476Z,26.91
2023-03-26T07:38:26.531Z,26.84
2023-03-26T07:42:26.754Z,26.88
2023-03-26T07:46:26.432Z,27.00
2023-03-26T07:50:26.411Z,26.96
2023-03-26T07:54:26.378Z,26.94
2023-03-26T07:58:26.358Z,26.89
2023-03-26T08:02:26.300Z,26.82
2023-03-26T08:06:26.247Z,26.86
2023-03-26T08:10:26.204Z,26.74
2023-03-26T08:14:26.234Z,26.72
2023-03-26T08:18:26.442Z,26.82
2023-03-26T08:22:26.472Z,26.90
2023-03-26T08:26:26.384Z,26.96
2023-03-26T08:30:26.343Z,27.11
2023-03-26T08:34:26.268Z,27.09
2023-03-26T08:38:26.268Z,27.02
2023-03-26T08:42:26.203Z,26.93
2023-03-26T08:46:26.185Z,26.86
2023-03-26T08:50:26.134Z,26.90
2023-03-26T08:54:26.121Z,26.94
2023-03-26T08:58:26.094Z,26.98
2023-03-26T09:02:26.111Z,26.88
2023-03-26T09:06:26.135Z,26.86
2023-03-26T09:10:26.111Z,26.98
2023-03-26T09:14:26.066Z,27.01
2023-03-26T09:18:26.087Z,27.04
2023-03-26T09:22:26.014Z,27.11
2023-03-26T09:26:25.975Z,27.25
2023-03-26T09:30:25.932Z,27.29
2023-03-26T09:34:25.906Z,27.34
2023-03-26T09:38:25.856Z,27.42
2023-03-26T09:42:25.818Z,27.42
2023-03-26T09:46:25.811Z,27.42
2023-03-26T09:50:25.816Z,27.42
2023-03-26T09:54:25.930Z,27.42
2023-03-26T09:58:25.895Z,27.32
2023-03-26T10:02:45.579Z,27.28
2023-03-26T10:06:26.824Z,27.27
2023-03-26T10:10:25.754Z,27.23
2023-03-26T10:14:25.916Z,27.24
2023-03-26T10:18:27.169Z,27.25
2023-03-26T10:22:26.092Z,27.22
2023-03-26T10:26:26.080Z,27.29
2023-03-26T10:30:26.024Z,27.26
2023-03-26T10:34:29.345Z,27.30
2023-03-26T10:38:25.912Z,27.41
2023-03-26T10:42:25.921Z,27.45
2023-03-26T10:46:25.908Z,27.51
2023-03-26T10:50:25.836Z,27.57
2023-03-26T10:54:25.804Z,27.58
2023-03-26T10:58:25.798Z,27.64
2023-03-26T11:02:29.117Z,27.60
2023-03-26T11:06:25.720Z,27.64
2023-03-26T11:10:25.663Z,27.62
2023-03-26T11:14:34.427Z,27.65
2023-03-26T11:18:26.613Z,27.55
2023-03-26T11:22:25.574Z,27.56
2023-03-26T11:26:25.671Z,27.51
2023-03-26T11:30:25.858Z,27.44
2023-03-26T11:34:26.049Z,27.42
2023-03-26T11:38:26.282Z,27.47
2023-03-26T11:42:26.470Z,27.45
2023-03-26T11:46:26.701Z,27.34
2023-03-26T11:50:26.826Z,27.36
2023-03-26T11:54:26.987Z,27.32
2023-03-26T11:58:27.181Z,27.34
2023-03-26T12:02:27.424Z,27.36
2023-03-26T12:06:27.497Z,27.37
2023-03-26T12:10:27.668Z,27.43
2023-03-26T12:14:27.905Z,27.48
2023-03-26T12:18:27.837Z,27.56
2023-03-26T12:22:27.801Z,27.65
2023-03-26T12:26:27.782Z,27.75
2023-03-26T12:30:27.706Z,27.70
2023-03-26T12:34:27.669Z,27.78
2023-03-26T12:38:27.628Z,27.85
2023-03-26T12:44:56.340Z,27.85
2023-03-26T12:47:55.106Z,27.89
2023-03-26T12:50:34.668Z,27.91
2023-03-26T12:54:28.517Z,27.94
2023-03-26T12:58:27.491Z,27.97
2023-03-26T13:02:27.565Z,28.01
2023-03-26T13:06:27.473Z,28.04
2023-03-26T13:10:27.339Z,28.06
2023-03-26T13:14:27.292Z,28.13
2023-03-26T13:18:27.284Z,28.10
2023-03-26T13:22:27.439Z,28.25
2023-03-26T13:26:27.345Z,28.23
2023-03-26T13:30:27.380Z,28.28
2023-03-26T13:34:27.301Z,28.27
2023-03-26T13:38:27.248Z,28.25
2023-03-26T13:42:27.221Z,28.26
2023-03-26T13:46:27.214Z,28.26
2023-03-26T13:50:27.165Z,28.29
2023-03-26T13:54:27.121Z,28.35
2023-03-26T13:58:27.110Z,28.29
2023-03-26T14:02:28.062Z,28.31
2023-03-26T14:06:27.078Z,28.30
2023-03-26T14:10:27.033Z,28.29
2023-03-26T14:14:27.001Z,28.29
2023-03-26T14:18:26.955Z,28.33
2023-03-26T14:22:26.918Z,28.36
2023-03-26T14:26:26.887Z,28.34
2023-03-26T14:30:26.853Z,28.33
2023-03-26T14:34:26.806Z,28.36
2023-03-26T14:38:26.822Z,28.31
2023-03-26T14:42:26.722Z,28.36
2023-03-26T14:46:26.792Z,28.38
2023-03-26T14:50:26.690Z,28.33
2023-03-26T14:54:26.646Z,28.37
2023-03-26T14:58:26.632Z,28.44
2023-03-26T15:02:26.632Z,28.38
2023-03-26T15:06:26.524Z,28.39
2023-03-26T15:10:26.517Z,28.45
2023-03-26T15:14:26.443Z,28.45
2023-03-26T15:18:26.431Z,28.42
2023-03-26T15:22:26.357Z,28.53
2023-03-26T15:26:26.389Z,28.50
2023-03-26T15:30:27.019Z,28.57
2023-03-26T15:34:26.244Z,28.58
2023-03-26T15:38:26.911Z,28.57
2023-03-26T15:42:26.168Z,28.60
2023-03-26T15:46:26.254Z,28.58
2023-03-26T15:50:26.087Z,28.57
2023-03-26T15:54:26.090Z,28.55
2023-03-26T15:58:26.105Z,28.64
2023-03-26T16:02:26.185Z,28.61
2023-03-26T16:06:26.109Z,28.61
2023-03-26T16:10:26.075Z,28.59
2023-03-26T16:14:26.092Z,28.65
2023-03-26T16:18:26.112Z,28.61
2023-03-26T16:22:26.445Z,28.62
2023-03-26T16:26:26.110Z,28.62
2023-03-26T16:30:26.193Z,28.65
2023-03-26T16:34:26.185Z,28.62
2023-03-26T16:38:26.262Z,28.63
2023-03-26T16:42:26.224Z,28.65
2023-03-26T16:46:26.270Z,28.67
2023-03-26T16:50:26.245Z,28.63
2023-03-26T16:54:26.295Z,28.73
2023-03-26T16:58:26.305Z,28.66
2023-03-26T17:02:26.396Z,28.67
2023-03-26T17:06:26.335Z,28.74
2023-03-26T17:10:26.385Z,28.68
2023-03-26T17:14:26.422Z,28.70
2023-03-26T17:18:26.517Z,28.67
2023-03-26T17:22:26.615Z,28.75
2023-03-26T17:26:26.570Z,28.77
2023-03-26T17:30:26.600Z,28.74
2023-03-26T17:34:26.639Z,28.74
2023-03-26T17:38:26.640Z,28.74
2023-03-26T17:42:26.771Z,28.78
2023-03-26T17:46:26.922Z,28.79
2023-03-26T17:50:26.916Z,28.72
2023-03-26T17:54:26.988Z,28.75
2023-03-26T17:58:27.026Z,28.73
2023-03-26T18:02:27.065Z,28.72
2023-03-26T18:06:27.045Z,28.76
2023-03-26T18:10:27.154Z,28.76
2023-03-26T18:14:27.148Z,28.79
2023-03-26T18:18:27.262Z,28.82
2023-03-26T18:22:27.308Z,28.83
2023-03-26T18:26:27.405Z,28.79
2023-03-26T18:30:27.446Z,28.80
2023-03-26T18:34:27.551Z,28.77
2023-03-26T18:38:36.338Z,28.81
2023-03-26T18:42:28.524Z,28.78
2023-03-26T18:46:27.518Z,28.77
2023-03-26T18:50:27.511Z,28.78
2023-03-26T18:54:27.424Z,28.78
2023-03-26T18:58:27.406Z,28.81
2023-03-26T19:02:27.565Z,28.78
2023-03-26T19:06:27.562Z,28.77
2023-03-26T19:10:27.986Z,28.84
2023-03-26T19:14:27.763Z,28.81
2023-03-26T19:18:27.883Z,28.84
2023-03-26T19:22:28.048Z,28.77
2023-03-26T19:26:28.045Z,28.80
2023-03-26T19:30:28.351Z,28.81
2023-03-26T19:34:28.355Z,28.79
2023-03-26T19:38:28.434Z,28.78
2023-03-26T19:42:42.856Z,28.79
2023-03-26T19:46:29.594Z,28.78
2023-03-26T19:50:28.524Z,28.80
2023-03-26T19:54:28.392Z,28.78
2023-03-26T19:58:28.426Z,28.80
2023-03-26T20:02:28.503Z,28.80
2023-03-26T20:06:41.774Z,28.82
2023-03-26T20:10:29.530Z,28.84
2023-03-26T20:14:28.489Z,28.82
2023-03-26T20:18:28.466Z,28.82
2023-03-26T20:22:28.421Z,28.80
2023-03-26T20:26:28.516Z,28.78
2023-03-26T20:30:37.366Z,28.81
2023-03-26T20:34:29.718Z,28.82
2023-03-26T20:38:39.007Z,28.81
2023-03-26T20:42:29.606Z,28.83
2023-03-26T20:46:30.847Z,28.81
2023-03-26T20:50:28.835Z,28.84
2023-03-26T20:54:28.505Z,28.79
2023-03-26T20:58:31.129Z,28.83
2023-03-26T21:02:28.449Z,28.81
2023-03-26T21:06:28.446Z,28.87
2023-03-26T21:10:28.351Z,28.87
2023-03-26T21:14:28.383Z,28.79
2023-03-26T21:18:28.307Z,28.87
2023-03-26T21:22:28.252Z,28.82
2023-03-26T21:26:28.223Z,28.79
2023-03-26T21:30:28.217Z,28.82
2023-03-26T21:34:28.374Z,28.81
2023-03-26T21:38:28.595Z,28.78
2023-03-26T21:42:28.653Z,28.77
2023-03-26T21:46:28.967Z,28.82
2023-03-26T21:50:29.023Z,28.78
2023-03-26T21:54:29.227Z,28.82
2023-03-26T21:58:29.464Z,28.84
2023-03-26T22:02:29.398Z,28.79
2023-03-26T22:06:29.400Z,28.84
2023-03-26T22:10:29.323Z,28.78
2023-03-26T22:14:29.309Z,28.80
2023-03-26T22:18:29.294Z,28.82
2023-03-26T22:22:29.262Z,28.80
2023-03-26T22:26:29.173Z,28.82
2023-03-26T22:30:29.155Z,28.84
2023-03-26T22:34:29.077Z,28.80
2023-03-26T22:38:29.061Z,28.85
2023-03-26T22:42:29.053Z,28.83
2023-03-26T22:46:29.071Z,28.84
2023-03-26T22:50:29.227Z,28.76
2023-03-26T22:54:29.354Z,28.87
2023-03-26T22:58:29.552Z,28.76
2023-03-26T23:02:29.789Z,28.80
2023-03-26T23:06:29.940Z,28.81
2023-03-26T23:10:30.257Z,28.83
2023-03-26T23:14:30.324Z,28.83
2023-03-26T23:18:30.538Z,28.84
2023-03-26T23:22:30.749Z,28.84
2023-03-26T23:26:35.082Z,28.81
2023-03-26T23:30:31.824Z,28.84
2023-03-26T23:34:30.817Z,28.85
2023-03-26T23:38:44.228Z,28.84
2023-03-26T23:42:31.998Z,28.80
2023-03-26T23:46:31.131Z,28.81
2023-03-26T23:50:30.826Z,28.85
2023-03-26T23:54:30.982Z,28.82
2023-03-26T23:58:31.121Z,28.85
